createdAt,value
2023-02-19T00:00:01.130Z,12.30
2023-02-19T00:01:00.730Z,12.30
2023-02-19T00:02:00.702Z,12.30
2023-02-19T00:03:00.718Z,12.30
2023-02-19T00:04:02.317Z,12.30
2023-02-19T00:05:00.768Z,9.50
2023-02-19T00:06:01.301Z,9.50
2023-02-19T00:07:00.765Z,9.50
2023-02-19T00:08:00.697Z,9.50
2023-02-19T00:09:01.054Z,9.50
2023-02-19T00:10:00.739Z,9.50
2023-02-19T00:11:01.856Z,9.50
2023-02-19T00:12:00.686Z,9.50
2023-02-19T00:13:00.709Z,9.50
2023-02-19T00:14:01.197Z,9.50
2023-02-19T00:15:00.709Z,9.50
2023-02-19T00:16:05.080Z,9.50
2023-02-19T00:17:00.693Z,9.50
2023-02-19T00:18:00.735Z,9.50
2023-02-19T00:19:01.639Z,9.50
2023-02-19T00:20:00.703Z,9.50
2023-02-19T00:21:01.990Z,9.50
2023-02-19T00:22:00.688Z,9.50
2023-02-19T00:23:00.701Z,9.50
2023-02-19T00:24:02.208Z,9.50
2023-02-19T00:25:00.683Z,9.50
2023-02-19T00:26:17.114Z,9.50
2023-02-19T00:27:00.695Z,9.50
2023-02-19T00:28:00.708Z,9.50
2023-02-19T00:29:00.822Z,9.50
2023-02-19T00:30:00.801Z,9.50
2023-02-19T00:31:06.137Z,9.50
2023-02-19T00:32:00.867Z,9.50
2023-02-19T00:33:00.690Z,9.50
2023-02-19T00:34:02.804Z,9.50
2023-02-19T00:35:00.702Z,10.00
2023-02-19T00:36:01.602Z,10.00
2023-02-19T00:37:00.726Z,10.00
2023-02-19T00:38:00.970Z,10.00
2023-02-19T00:39:01.228Z,10.00
2023-02-19T00:40:00.770Z,10.00
2023-02-19T00:41:01.196Z,10.00
2023-02-19T00:42:00.712Z,10.00
2023-02-19T00:43:00.760Z,10.00
2023-02-19T00:44:02.265Z,10.00
2023-02-19T00:45:00.709Z,10.00
2023-02-19T00:46:00.725Z,10.00
2023-02-19T00:47:00.708Z,10.00
2023-02-19T00:48:00.700Z,10.00
2023-02-19T00:49:01.056Z,10.00
2023-02-19T00:50:00.715Z,10.00
2023-02-19T00:51:00.720Z,10.00
2023-02-19T00:52:00.701Z,10.00
2023-02-19T00:53:00.711Z,10.00
2023-02-19T00:54:00.755Z,10.00
2023-02-19T00:55:01.081Z,10.00
2023-02-19T00:56:00.717Z,10.00
2023-02-19T00:57:00.694Z,10.00
2023-02-19T00:58:00.700Z,10.00
2023-02-19T00:59:00.744Z,10.00
2023-02-19T01:00:00.771Z,10.00
2023-02-19T01:01:00.800Z,10.00
2023-02-19T01:02:00.726Z,10.00
2023-02-19T01:03:00.738Z,10.00
2023-02-19T01:04:00.706Z,10.00
2023-02-19T01:05:00.746Z,4.00
2023-02-19T01:06:01.061Z,4.00
2023-02-19T01:07:00.700Z,4.00
2023-02-19T01:08:00.697Z,4.00
2023-02-19T01:09:00.746Z,4.00
2023-02-19T01:10:00.816Z,4.00
2023-02-19T01:11:01.310Z,4.00
2023-02-19T01:12:00.753Z,4.00
2023-02-19T01:13:00.730Z,4.00
2023-02-19T01:14:01.214Z,4.00
2023-02-19T01:15:00.719Z,4.00
2023-02-19T01:16:05.829Z,4.00
2023-02-19T01:17:00.775Z,4.00
2023-02-19T01:18:00.887Z,4.00
2023-02-19T01:19:00.708Z,4.00
2023-02-19T01:20:00.697Z,4.00
2023-02-19T01:21:04.076Z,4.00
2023-02-19T01:22:00.700Z,4.00
2023-02-19T01:23:00.714Z,4.00
2023-02-19T01:24:00.723Z,4.00
2023-02-19T01:25:00.748Z,4.00
2023-02-19T01:26:03.352Z,4.00
2023-02-19T01:27:00.693Z,4.00
2023-02-19T01:28:00.697Z,4.00
2023-02-19T01:29:01.051Z,4.00
2023-02-19T01:30:00.752Z,4.00
2023-02-19T01:31:03.073Z,4.00
2023-02-19T01:32:00.919Z,4.00
2023-02-19T01:33:00.691Z,4.00
2023-02-19T01:34:01.486Z,4.00
2023-02-19T01:35:00.709Z,7.30
2023-02-19T01:36:02.437Z,7.30
2023-02-19T01:37:01.073Z,7.30
2023-02-19T01:38:00.690Z,7.30
2023-02-19T01:39:01.186Z,7.30
2023-02-19T01:40:00.709Z,7.30
2023-02-19T01:41:03.014Z,7.30
2023-02-19T01:42:00.694Z,7.30
2023-02-19T01:43:02.008Z,7.30
2023-02-19T01:44:03.045Z,7.30
2023-02-19T01:45:10.629Z,7.30
2023-02-19T01:46:01.382Z,7.30
2023-02-19T01:47:00.713Z,7.30
2023-02-19T01:48:02.950Z,7.30
2023-02-19T01:49:03.529Z,7.30
2023-02-19T01:50:00.734Z,7.30
2023-02-19T01:51:04.930Z,7.30
2023-02-19T01:52:04.936Z,7.30
2023-02-19T01:53:01.868Z,7.30
2023-02-19T01:54:03.215Z,7.30
2023-02-19T01:55:01.702Z,7.30
2023-02-19T01:56:01.486Z,7.30
2023-02-19T01:57:03.398Z,7.30
2023-02-19T01:58:00.974Z,7.30
2023-02-19T01:59:00.995Z,7.30
2023-02-19T02:00:05.314Z,7.30
2023-02-19T02:01:02.414Z,7.30
2023-02-19T02:02:00.791Z,7.30
2023-02-19T02:03:00.828Z,7.30
2023-02-19T02:04:00.818Z,7.30
2023-02-19T02:05:01.032Z,7.80
2023-02-19T02:06:02.825Z,7.80
2023-02-19T02:07:02.379Z,7.80
2023-02-19T02:08:02.032Z,7.80
2023-02-19T02:09:00.719Z,7.80
2023-02-19T02:10:00.900Z,7.80
2023-02-19T02:11:01.052Z,7.80
2023-02-19T02:12:00.727Z,7.80
2023-02-19T02:13:00.716Z,7.80
2023-02-19T02:14:01.944Z,7.80
2023-02-19T02:15:00.749Z,7.80
2023-02-19T02:16:10.696Z,7.80
2023-02-19T02:17:00.707Z,7.80
2023-02-19T02:18:08.515Z,7.80
2023-02-19T02:19:05.785Z,7.80
2023-02-19T02:20:00.725Z,7.80
2023-02-19T02:21:01.718Z,7.80
2023-02-19T02:22:05.662Z,7.80
2023-02-19T02:23:00.746Z,7.80
2023-02-19T02:24:10.620Z,7.80
2023-02-19T02:25:09.140Z,7.80
2023-02-19T02:26:10.627Z,7.80
2023-02-19T02:27:10.622Z,7.80
2023-02-19T02:28:10.649Z,7.80
2023-02-19T02:29:10.610Z,7.80
2023-02-19T02:30:00.741Z,7.80
2023-02-19T02:31:04.829Z,7.80
2023-02-19T02:32:01.774Z,7.80
2023-02-19T02:33:00.699Z,7.80
2023-02-19T02:34:04.614Z,7.80
2023-02-19T02:35:04.630Z,9.20
2023-02-19T02:36:00.691Z,9.20
2023-02-19T02:37:01.960Z,9.20
2023-02-19T02:38:04.738Z,9.20
2023-02-19T02:39:01.806Z,9.20
2023-02-19T02:40:01.091Z,9.20
2023-02-19T02:41:01.195Z,9.20
2023-02-19T02:42:00.741Z,9.20
2023-02-19T02:43:00.708Z,9.20
2023-02-19T02:44:00.721Z,9.20
2023-02-19T02:45:10.606Z,9.20
2023-02-19T02:46:00.737Z,9.20
2023-02-19T02:47:02.825Z,9.20
2023-02-19T02:48:06.392Z,9.20
2023-02-19T02:49:04.233Z,9.20
2023-02-19T02:50:01.015Z,9.20
2023-02-19T02:51:05.610Z,9.20
2023-02-19T02:52:01.143Z,9.20
2023-02-19T02:53:02.600Z,9.20
2023-02-19T02:54:04.129Z,9.20
2023-02-19T02:55:02.657Z,9.20
2023-02-19T02:56:00.989Z,9.20
2023-02-19T02:57:00.941Z,9.20
2023-02-19T02:58:01.493Z,9.20
2023-02-19T02:59:02.725Z,9.20
2023-02-19T03:00:00.904Z,9.20
2023-02-19T03:01:04.100Z,9.20
2023-02-19T03:02:04.526Z,9.20
2023-02-19T03:03:00.768Z,9.20
2023-02-19T03:04:02.741Z,9.20
2023-02-19T03:05:10.656Z,8.10
2023-02-19T03:06:03.504Z,8.10
2023-02-19T03:07:04.365Z,8.10
2023-02-19T03:08:06.482Z,8.10
2023-02-19T03:09:10.610Z,8.10
2023-02-19T03:10:01.859Z,8.10
2023-02-19T03:11:03.127Z,8.10
2023-02-19T03:12:02.328Z,8.10
2023-02-19T03:13:01.815Z,8.10
2023-02-19T03:14:05.252Z,8.10
2023-02-19T03:15:03.452Z,8.10
2023-02-19T03:16:04.085Z,8.10
2023-02-19T03:17:05.429Z,8.10
2023-02-19T03:18:02.898Z,8.10
2023-02-19T03:19:02.598Z,8.10
2023-02-19T03:20:04.634Z,8.10
2023-02-19T03:21:03.043Z,8.10
2023-02-19T03:22:05.666Z,8.10
2023-02-19T03:23:00.905Z,8.10
2023-02-19T03:24:01.123Z,8.10
2023-02-19T03:25:04.226Z,8.10
2023-02-19T03:26:00.840Z,8.10
2023-02-19T03:27:03.434Z,8.10
2023-02-19T03:28:02.847Z,8.10
2023-02-19T03:29:02.420Z,8.10
2023-02-19T03:30:04.059Z,8.10
2023-02-19T03:31:00.770Z,8.10
2023-02-19T03:32:03.502Z,8.10
2023-02-19T03:33:00.687Z,8.10
2023-02-19T03:34:02.836Z,8.10
2023-02-19T03:35:05.107Z,6.80
2023-02-19T03:36:04.246Z,6.80
2023-02-19T03:37:09.463Z,6.80
2023-02-19T03:38:01.720Z,6.80
2023-02-19T03:39:02.845Z,6.80
2023-02-19T03:40:00.771Z,6.80
2023-02-19T03:41:10.982Z,6.80
2023-02-19T03:42:04.598Z,6.80
2023-02-19T03:43:07.450Z,6.80
2023-02-19T03:44:10.609Z,6.80
2023-02-19T03:45:09.115Z,6.80
2023-02-19T03:46:04.099Z,6.80
2023-02-19T03:47:06.382Z,6.80
2023-02-19T03:48:01.707Z,6.80
2023-02-19T03:49:04.558Z,6.80
2023-02-19T03:50:08.679Z,6.80
2023-02-19T03:51:11.013Z,6.80
2023-02-19T03:52:03.966Z,6.80
2023-02-19T03:53:08.023Z,6.80
2023-02-19T03:54:01.709Z,6.80
2023-02-19T03:55:00.701Z,6.80
2023-02-19T03:56:05.600Z,6.80
2023-02-19T03:57:08.115Z,6.80
2023-02-19T03:58:00.703Z,6.80
2023-02-19T03:59:10.616Z,6.80
2023-02-19T04:00:05.828Z,6.80
2023-02-19T04:01:04.728Z,6.80
2023-02-19T04:02:05.310Z,6.80
2023-02-19T04:03:07.415Z,6.80
2023-02-19T04:04:05.936Z,6.80
2023-02-19T04:05:00.726Z,6.20
2023-02-19T04:06:02.276Z,6.20
2023-02-19T04:07:00.837Z,6.20
2023-02-19T04:08:05.007Z,6.20
2023-02-19T04:09:03.101Z,6.20
2023-02-19T04:10:01.778Z,6.20
2023-02-19T04:11:01.324Z,6.20
2023-02-19T04:12:00.891Z,6.20
2023-02-19T04:13:04.537Z,6.20
2023-02-19T04:14:04.878Z,6.20
2023-02-19T04:15:02.230Z,6.20
2023-02-19T04:16:03.253Z,6.20
2023-02-19T04:17:02.230Z,6.20
2023-02-19T04:18:05.074Z,6.20
2023-02-19T04:19:04.138Z,6.20
2023-02-19T04:20:02.467Z,6.20
2023-02-19T04:21:02.273Z,6.20
2023-02-19T04:22:01.292Z,6.20
2023-02-19T04:23:00.845Z,6.20
2023-02-19T04:24:03.823Z,6.20
2023-02-19T04:25:00.898Z,6.20
2023-02-19T04:26:02.024Z,6.20
2023-02-19T04:27:01.608Z,6.20
2023-02-19T04:28:00.970Z,6.20
2023-02-19T04:29:00.974Z,6.20
2023-02-19T04:30:00.772Z,6.20
2023-02-19T04:31:00.739Z,6.20
2023-02-19T04:32:00.951Z,6.20
2023-02-19T04:33:00.736Z,6.20
2023-02-19T04:34:01.227Z,6.20
2023-02-19T04:35:00.727Z,5.50
2023-02-19T04:36:00.694Z,5.50
2023-02-19T04:37:00.711Z,5.50
2023-02-19T04:38:00.698Z,5.50
2023-02-19T04:39:00.692Z,5.50
2023-02-19T04:40:00.753Z,5.50
2023-02-19T04:41:00.763Z,5.50
2023-02-19T04:42:00.701Z,5.50
2023-02-19T04:43:00.701Z,5.50
2023-02-19T04:44:00.695Z,5.50
2023-02-19T04:45:00.749Z,5.50
2023-02-19T04:46:01.134Z,5.50
2023-02-19T04:47:00.755Z,5.50
2023-02-19T04:48:00.687Z,5.50
2023-02-19T04:49:00.714Z,5.50
2023-02-19T04:50:00.701Z,5.50
2023-02-19T04:51:04.050Z,5.50
2023-02-19T04:52:00.688Z,5.50
2023-02-19T04:53:00.689Z,5.50
2023-02-19T04:54:00.734Z,5.50
2023-02-19T04:55:00.715Z,5.50
2023-02-19T04:56:04.746Z,5.50
2023-02-19T04:57:00.802Z,5.50
2023-02-19T04:58:00.700Z,5.50
2023-02-19T04:59:01.349Z,5.50
2023-02-19T05:00:00.855Z,5.50
2023-02-19T05:01:00.701Z,5.50
2023-02-19T05:02:00.791Z,5.50
2023-02-19T05:03:00.813Z,5.50
2023-02-19T05:04:00.805Z,5.50
2023-02-19T05:05:00.713Z,5.90
2023-02-19T05:06:03.028Z,5.90
2023-02-19T05:07:00.721Z,5.90
2023-02-19T05:08:00.904Z,5.90
2023-02-19T05:09:00.693Z,5.90
2023-02-19T05:10:00.708Z,5.90
2023-02-19T05:11:01.253Z,5.90
2023-02-19T05:12:00.775Z,5.90
2023-02-19T05:13:00.700Z,5.90
2023-02-19T05:14:00.764Z,5.90
2023-02-19T05:15:00.714Z,5.90
2023-02-19T05:16:03.577Z,5.90
2023-02-19T05:17:00.718Z,5.90
2023-02-19T05:18:00.812Z,5.90
2023-02-19T05:19:00.703Z,5.90
2023-02-19T05:20:00.712Z,5.90
2023-02-19T05:21:01.077Z,5.90
2023-02-19T05:22:00.690Z,5.90
2023-02-19T05:23:00.704Z,5.90
2023-02-19T05:24:00.712Z,5.90
2023-02-19T05:25:00.694Z,5.90
2023-02-19T05:26:10.530Z,5.90
2023-02-19T05:27:00.707Z,5.90
2023-02-19T05:28:00.696Z,5.90
2023-02-19T05:29:00.699Z,5.90
2023-02-19T05:30:00.805Z,5.90
2023-02-19T05:31:03.586Z,5.90
2023-02-19T05:32:00.766Z,5.90
2023-02-19T05:33:00.699Z,5.90
2023-02-19T05:34:00.703Z,5.90
2023-02-19T05:35:00.725Z,6.80
2023-02-19T05:36:04.461Z,6.80
2023-02-19T05:37:00.696Z,6.80
2023-02-19T05:38:00.699Z,6.80
2023-02-19T05:39:00.732Z,6.80
2023-02-19T05:40:00.706Z,6.80
2023-02-19T05:41:10.992Z,6.80
2023-02-19T05:42:00.741Z,6.80
2023-02-19T05:43:00.740Z,6.80
2023-02-19T05:44:00.695Z,6.80
2023-02-19T05:45:00.684Z,6.80
2023-02-19T05:46:00.849Z,6.80
2023-02-19T05:47:00.702Z,6.80
2023-02-19T05:48:00.857Z,6.80
2023-02-19T05:49:00.783Z,6.80
2023-02-19T05:50:00.702Z,6.80
2023-02-19T05:51:05.105Z,6.80
2023-02-19T05:52:00.739Z,6.80
2023-02-19T05:53:01.267Z,6.80
2023-02-19T05:54:00.715Z,6.80
2023-02-19T05:55:00.698Z,6.80
2023-02-19T05:56:00.806Z,6.80
2023-02-19T05:57:00.709Z,6.80
2023-02-19T05:58:00.702Z,6.80
2023-02-19T05:59:02.151Z,6.80
2023-02-19T06:00:00.727Z,6.80
2023-02-19T06:01:00.689Z,6.80
2023-02-19T06:02:00.694Z,6.80
2023-02-19T06:03:00.788Z,6.80
2023-02-19T06:04:00.802Z,6.80
2023-02-19T06:05:00.718Z,5.40
2023-02-19T06:06:02.233Z,5.40
2023-02-19T06:07:00.686Z,5.40
2023-02-19T06:08:00.692Z,5.40
2023-02-19T06:09:00.697Z,5.40
2023-02-19T06:10:01.059Z,5.40
2023-02-19T06:11:00.707Z,5.40
2023-02-19T06:12:00.689Z,5.40
2023-02-19T06:13:00.707Z,5.40
2023-02-19T06:14:00.763Z,5.40
2023-02-19T06:15:00.881Z,5.40
2023-02-19T06:16:04.495Z,5.40
2023-02-19T06:17:00.701Z,5.40
2023-02-19T06:18:00.710Z,5.40
2023-02-19T06:19:01.590Z,5.40
2023-02-19T06:20:01.046Z,5.40
2023-02-19T06:21:01.503Z,5.40
2023-02-19T06:22:00.742Z,5.40
2023-02-19T06:23:00.698Z,5.40
2023-02-19T06:24:05.155Z,5.40
2023-02-19T06:25:00.731Z,5.40
2023-02-19T06:26:05.257Z,5.40
2023-02-19T06:27:00.730Z,5.40
2023-02-19T06:28:00.716Z,5.40
2023-02-19T06:29:00.704Z,5.40
2023-02-19T06:30:00.754Z,5.40
2023-02-19T06:31:00.701Z,5.40
2023-02-19T06:32:00.952Z,5.40
2023-02-19T06:33:01.028Z,5.40
2023-02-19T06:34:02.584Z,5.40
2023-02-19T06:35:00.779Z,6.30
2023-02-19T06:36:01.434Z,6.30
2023-02-19T06:37:00.701Z,6.30
2023-02-19T06:38:00.791Z,6.30
2023-02-19T06:39:01.415Z,6.30
2023-02-19T06:40:00.703Z,6.30
2023-02-19T06:41:01.508Z,6.30
2023-02-19T06:42:00.699Z,6.30
2023-02-19T06:43:00.709Z,6.30
2023-02-19T06:44:00.729Z,6.30
2023-02-19T06:45:00.709Z,6.30
2023-02-19T06:46:01.369Z,6.30
2023-02-19T06:47:00.778Z,6.30
2023-02-19T06:48:00.693Z,6.30
2023-02-19T06:49:02.498Z,6.30
2023-02-19T06:50:00.725Z,6.30
2023-02-19T06:51:00.730Z,6.30
2023-02-19T06:52:00.697Z,6.30
2023-02-19T06:53:00.709Z,6.30
2023-02-19T06:54:00.707Z,6.30
2023-02-19T06:55:00.725Z,6.30
2023-02-19T06:56:03.114Z,6.30
2023-02-19T06:57:00.718Z,6.30
2023-02-19T06:58:00.751Z,6.30
2023-02-19T06:59:02.116Z,6.30
2023-02-19T07:00:00.731Z,6.30
2023-02-19T07:01:00.852Z,6.30
2023-02-19T07:02:00.721Z,6.30
2023-02-19T07:03:00.729Z,6.30
2023-02-19T07:04:01.171Z,6.30
2023-02-19T07:05:00.733Z,4.00
2023-02-19T07:06:00.699Z,4.00
2023-02-19T07:07:00.709Z,4.00
2023-02-19T07:08:00.708Z,4.00
2023-02-19T07:09:01.011Z,4.00
2023-02-19T07:10:00.782Z,4.00
2023-02-19T07:11:00.728Z,4.00
2023-02-19T07:12:00.692Z,4.00
2023-02-19T07:13:00.720Z,4.00
2023-02-19T07:14:01.780Z,4.00
2023-02-19T07:15:00.704Z,4.00
2023-02-19T07:16:01.740Z,4.00
2023-02-19T07:17:00.727Z,4.00
2023-02-19T07:18:00.728Z,4.00
2023-02-19T07:19:00.721Z,4.00
2023-02-19T07:20:00.830Z,4.00
2023-02-19T07:21:01.929Z,4.00
2023-02-19T07:22:00.758Z,4.00
2023-02-19T07:23:00.705Z,4.00
2023-02-19T07:24:00.706Z,4.00
2023-02-19T07:25:00.704Z,4.00
2023-02-19T07:26:01.085Z,4.00
2023-02-19T07:27:00.738Z,4.00
2023-02-19T07:28:00.691Z,4.00
2023-02-19T07:29:00.763Z,4.00
2023-02-19T07:30:00.760Z,4.00
2023-02-19T07:31:01.237Z,4.00
2023-02-19T07:32:00.884Z,4.00
2023-02-19T07:33:00.700Z,4.00
2023-02-19T07:34:00.694Z,4.00
2023-02-19T07:35:00.695Z,5.50
2023-02-19T07:36:00.745Z,5.50
2023-02-19T07:37:00.705Z,5.50
2023-02-19T07:38:00.692Z,5.50
2023-02-19T07:39:00.721Z,5.50
2023-02-19T07:40:00.836Z,5.50
2023-02-19T07:41:02.293Z,5.50
2023-02-19T07:42:00.715Z,5.50
2023-02-19T07:43:00.744Z,5.50
2023-02-19T07:44:00.695Z,5.50
2023-02-19T07:45:00.838Z,5.50
2023-02-19T07:46:02.539Z,5.50
2023-02-19T07:47:00.714Z,5.50
2023-02-19T07:48:00.729Z,5.50
2023-02-19T07:49:00.688Z,5.50
2023-02-19T07:50:02.173Z,5.50
2023-02-19T07:51:01.145Z,5.50
2023-02-19T07:52:00.742Z,5.50
2023-02-19T07:53:00.749Z,5.50
2023-02-19T07:54:00.714Z,5.50
2023-02-19T07:55:00.746Z,5.50
2023-02-19T07:56:01.609Z,5.50
2023-02-19T07:57:00.725Z,5.50
2023-02-19T07:58:00.728Z,5.50
2023-02-19T07:59:00.749Z,5.50
2023-02-19T08:00:00.868Z,5.50
2023-02-19T08:01:10.882Z,5.50
2023-02-19T08:02:00.701Z,5.50
2023-02-19T08:03:00.806Z,5.50
2023-02-19T08:04:00.700Z,5.50
2023-02-19T08:05:00.751Z,5.20
2023-02-19T08:06:00.875Z,5.20
2023-02-19T08:07:00.696Z,5.20
2023-02-19T08:08:00.695Z,5.20
2023-02-19T08:09:00.737Z,5.20
2023-02-19T08:10:01.282Z,5.20
2023-02-19T08:11:01.842Z,5.20
2023-02-19T08:12:00.715Z,5.20
2023-02-19T08:13:01.042Z,5.20
2023-02-19T08:14:00.728Z,5.20
2023-02-19T08:15:00.746Z,5.20
2023-02-19T08:16:16.001Z,5.20
2023-02-19T08:17:00.718Z,5.20
2023-02-19T08:18:00.698Z,5.20
2023-02-19T08:19:00.704Z,5.20
2023-02-19T08:20:00.691Z,5.20
2023-02-19T08:21:00.731Z,5.20
2023-02-19T08:22:00.701Z,5.20
2023-02-19T08:23:00.743Z,5.20
2023-02-19T08:24:00.700Z,5.20
2023-02-19T08:25:00.706Z,5.20
2023-02-19T08:26:01.148Z,5.20
2023-02-19T08:27:00.702Z,5.20
2023-02-19T08:28:00.955Z,5.20
2023-02-19T08:29:00.904Z,5.20
2023-02-19T08:30:00.755Z,5.20
2023-02-19T08:31:01.648Z,5.20
2023-02-19T08:32:00.753Z,5.20
2023-02-19T08:33:02.241Z,5.20
2023-02-19T08:34:00.715Z,5.20
2023-02-19T08:35:00.740Z,4.70
2023-02-19T08:36:01.531Z,4.70
2023-02-19T08:37:00.705Z,4.70
2023-02-19T08:38:01.127Z,4.70
2023-02-19T08:39:00.715Z,4.70
2023-02-19T08:40:00.708Z,4.70
2023-02-19T08:41:04.985Z,4.70
2023-02-19T08:42:00.696Z,4.70
2023-02-19T08:43:01.593Z,4.70
2023-02-19T08:44:00.694Z,4.70
2023-02-19T08:45:00.741Z,4.70
2023-02-19T08:46:00.840Z,4.70
2023-02-19T08:47:00.699Z,4.70
2023-02-19T08:48:00.747Z,4.70
2023-02-19T08:49:00.705Z,4.70
2023-02-19T08:50:00.825Z,4.70
2023-02-19T08:51:02.482Z,4.70
2023-02-19T08:52:00.716Z,4.70
2023-02-19T08:53:01.240Z,4.70
2023-02-19T08:54:01.683Z,4.70
2023-02-19T08:55:01.204Z,4.70
2023-02-19T08:56:09.145Z,4.70
2023-02-19T08:57:00.758Z,4.70
2023-02-19T08:58:00.701Z,4.70
2023-02-19T08:59:00.720Z,4.70
2023-02-19T09:00:00.702Z,4.70
2023-02-19T09:01:00.806Z,4.70
2023-02-19T09:02:00.721Z,4.70
2023-02-19T09:03:00.709Z,4.70
2023-02-19T09:04:00.739Z,4.70
2023-02-19T09:05:00.814Z,5.50
2023-02-19T09:06:00.702Z,5.50
2023-02-19T09:07:00.860Z,5.50
2023-02-19T09:08:00.746Z,5.50
2023-02-19T09:09:00.702Z,5.50
2023-02-19T09:10:00.739Z,5.50
2023-02-19T09:11:01.580Z,5.50
2023-02-19T09:12:00.706Z,5.50
2023-02-19T09:13:00.778Z,5.50
2023-02-19T09:14:00.687Z,5.50
2023-02-19T09:15:00.725Z,5.50
2023-02-19T09:16:02.045Z,5.50
2023-02-19T09:17:01.654Z,5.50
2023-02-19T09:18:00.706Z,5.50
2023-02-19T09:19:00.753Z,5.50
2023-02-19T09:20:00.886Z,5.50
2023-02-19T09:21:01.359Z,5.50
2023-02-19T09:22:01.514Z,5.50
2023-02-19T09:23:00.699Z,5.50
2023-02-19T09:24:00.689Z,5.50
2023-02-19T09:25:00.731Z,5.50
2023-02-19T09:26:01.474Z,5.50
2023-02-19T09:27:00.819Z,5.50
2023-02-19T09:28:00.712Z,5.50
2023-02-19T09:29:00.713Z,5.50
2023-02-19T09:30:00.753Z,5.50
2023-02-19T09:31:04.378Z,5.50
2023-02-19T09:32:00.771Z,5.50
2023-02-19T09:33:00.698Z,5.50
2023-02-19T09:34:00.732Z,5.50
2023-02-19T09:35:00.730Z,7.70
2023-02-19T09:36:01.015Z,7.70
2023-02-19T09:37:00.781Z,7.70
2023-02-19T09:38:00.761Z,7.70
2023-02-19T09:39:00.719Z,7.70
2023-02-19T09:40:00.700Z,7.70
2023-02-19T09:41:10.891Z,7.70
2023-02-19T09:42:03.344Z,7.70
2023-02-19T09:43:01.940Z,7.70
2023-02-19T09:44:01.813Z,7.70
2023-02-19T09:45:03.270Z,7.70
2023-02-19T09:46:03.206Z,7.70
2023-02-19T09:47:02.503Z,7.70
2023-02-19T09:48:01.009Z,7.70
2023-02-19T09:49:04.289Z,7.70
2023-02-19T09:50:05.319Z,7.70
2023-02-19T09:51:01.549Z,7.70
2023-02-19T09:52:01.709Z,7.70
2023-02-19T09:53:02.043Z,7.70
2023-02-19T09:54:01.902Z,7.70
2023-02-19T09:55:02.742Z,7.70
2023-02-19T09:56:00.731Z,7.70
2023-02-19T09:57:01.258Z,7.70
2023-02-19T09:58:02.671Z,7.70
2023-02-19T09:59:01.022Z,7.70
2023-02-19T10:00:03.169Z,7.70
2023-02-19T10:01:02.600Z,7.70
2023-02-19T10:02:10.601Z,7.70
2023-02-19T10:03:05.191Z,7.70
2023-02-19T10:04:00.714Z,7.70
2023-02-19T10:05:02.187Z,7.30
2023-02-19T10:06:03.818Z,7.30
2023-02-19T10:07:00.757Z,7.30
2023-02-19T10:08:03.713Z,7.30
2023-02-19T10:09:10.603Z,7.30
2023-02-19T10:10:10.596Z,7.30
2023-02-19T10:11:02.460Z,7.30
2023-02-19T10:12:00.966Z,7.30
2023-02-19T10:13:10.608Z,7.30
2023-02-19T10:14:03.976Z,7.30
2023-02-19T10:15:08.208Z,7.30
2023-02-19T10:16:02.821Z,7.30
2023-02-19T10:17:02.992Z,7.30
2023-02-19T10:18:02.027Z,7.30
2023-02-19T10:19:00.876Z,7.30
2023-02-19T10:20:01.079Z,7.30
2023-02-19T10:21:00.897Z,7.30
2023-02-19T10:22:02.291Z,7.30
2023-02-19T10:23:03.196Z,7.30
2023-02-19T10:24:01.858Z,7.30
2023-02-19T10:25:00.928Z,7.30
2023-02-19T10:26:00.717Z,7.30
2023-02-19T10:27:00.833Z,7.30
2023-02-19T10:28:01.588Z,7.30
2023-02-19T10:29:01.437Z,7.30
2023-02-19T10:30:01.071Z,7.30
2023-02-19T10:31:02.513Z,7.30
2023-02-19T10:32:10.650Z,7.30
2023-02-19T10:33:07.778Z,7.30
2023-02-19T10:34:01.097Z,7.30
2023-02-19T10:35:10.629Z,6.20
2023-02-19T10:36:00.680Z,6.20
2023-02-19T10:37:00.712Z,6.20
2023-02-19T10:38:00.870Z,6.20
2023-02-19T10:39:01.564Z,6.20
2023-02-19T10:40:00.726Z,6.20
2023-02-19T10:41:00.701Z,6.20
2023-02-19T10:42:01.368Z,6.20
2023-02-19T10:43:02.224Z,6.20
2023-02-19T10:44:05.750Z,6.20
2023-02-19T10:45:01.204Z,6.20
2023-02-19T10:46:01.983Z,6.20
2023-02-19T10:47:00.728Z,6.20
2023-02-19T10:48:01.755Z,6.20
2023-02-19T10:49:02.560Z,6.20
2023-02-19T10:50:02.119Z,6.20
2023-02-19T10:51:03.557Z,6.20
2023-02-19T10:52:10.618Z,6.20
2023-02-19T10:53:00.739Z,6.20
2023-02-19T10:54:10.604Z,6.20
2023-02-19T10:55:10.603Z,6.20
2023-02-19T10:56:05.561Z,6.20
2023-02-19T10:57:10.605Z,6.20
2023-02-19T10:58:10.620Z,6.20
2023-02-19T10:59:10.624Z,6.20
2023-02-19T11:00:10.635Z,6.20
2023-02-19T11:01:10.957Z,6.20
2023-02-19T11:02:01.839Z,6.20
2023-02-19T11:03:10.608Z,6.20
2023-02-19T11:04:10.654Z,6.20
2023-02-19T11:05:02.339Z,6.10
2023-02-19T11:06:02.079Z,6.10
2023-02-19T11:07:10.632Z,6.10
2023-02-19T11:08:00.709Z,6.10
2023-02-19T11:09:00.782Z,6.10
2023-02-19T11:10:01.956Z,6.10
2023-02-19T11:11:00.772Z,6.10
2023-02-19T11:12:00.907Z,6.10
2023-02-19T11:13:02.302Z,6.10
2023-02-19T11:14:03.129Z,6.10
2023-02-19T11:15:10.598Z,6.10
2023-02-19T11:16:00.846Z,6.10
2023-02-19T11:17:03.548Z,6.10
2023-02-19T11:18:10.622Z,6.10
2023-02-19T11:19:00.703Z,6.10
2023-02-19T11:20:05.196Z,6.10
2023-02-19T11:21:02.142Z,6.10
2023-02-19T11:22:01.312Z,6.10
2023-02-19T11:23:09.516Z,6.10
2023-02-19T11:24:00.956Z,6.10
2023-02-19T11:25:01.714Z,6.10
2023-02-19T11:26:02.652Z,6.10
2023-02-19T11:27:02.553Z,6.10
2023-02-19T11:28:01.739Z,6.10
2023-02-19T11:29:10.250Z,6.10
2023-02-19T11:30:10.636Z,6.10
2023-02-19T11:31:11.220Z,6.10
2023-02-19T11:32:10.763Z,6.10
2023-02-19T11:33:10.602Z,6.10
2023-02-19T11:34:02.041Z,6.10
2023-02-19T11:35:10.604Z,3.60
2023-02-19T11:36:10.607Z,3.60
2023-02-19T11:37:10.620Z,3.60
2023-02-19T11:38:01.122Z,3.60
2023-02-19T11:39:10.616Z,3.60
2023-02-19T11:40:00.698Z,3.60
2023-02-19T11:41:01.730Z,3.60
2023-02-19T11:42:00.712Z,3.60
2023-02-19T11:43:05.809Z,3.60
2023-02-19T11:44:10.807Z,3.60
2023-02-19T11:45:10.831Z,3.60
2023-02-19T11:46:08.397Z,3.60
2023-02-19T11:47:10.615Z,3.60
2023-02-19T11:48:10.622Z,3.60
2023-02-19T11:49:10.620Z,3.60
2023-02-19T11:50:05.548Z,3.60
2023-02-19T11:51:11.146Z,3.60
2023-02-19T11:52:10.620Z,3.60
2023-02-19T11:53:10.624Z,3.60
2023-02-19T11:54:09.429Z,3.60
2023-02-19T11:55:10.616Z,3.60
2023-02-19T11:56:10.609Z,3.60
2023-02-19T11:57:10.431Z,3.60
2023-02-19T11:58:10.616Z,3.60
2023-02-19T11:59:01.729Z,3.60
2023-02-19T12:00:01.720Z,3.60
2023-02-19T12:01:11.058Z,3.60
2023-02-19T12:02:10.650Z,3.60
2023-02-19T12:03:10.613Z,3.60
2023-02-19T12:04:10.606Z,3.60
2023-02-19T12:05:10.670Z,4.00
2023-02-19T12:06:10.854Z,4.00
2023-02-19T12:07:10.672Z,4.00
2023-02-19T12:08:10.611Z,4.00
2023-02-19T12:09:10.611Z,4.00
2023-02-19T12:10:01.734Z,4.00
2023-02-19T12:11:09.939Z,4.00
2023-02-19T12:12:10.608Z,4.00
2023-02-19T12:13:10.625Z,4.00
2023-02-19T12:14:10.604Z,4.00
2023-02-19T12:15:01.708Z,4.00
2023-02-19T12:16:04.084Z,4.00
2023-02-19T12:17:10.614Z,4.00
2023-02-19T12:18:10.632Z,4.00
2023-02-19T12:19:10.612Z,4.00
2023-02-19T12:20:01.726Z,4.00
2023-02-19T12:21:10.824Z,4.00
2023-02-19T12:22:10.615Z,4.00
2023-02-19T12:23:10.598Z,4.00
2023-02-19T12:24:00.691Z,4.00
2023-02-19T12:25:00.691Z,4.00
2023-02-19T12:26:10.913Z,4.00
2023-02-19T12:27:01.709Z,4.00
2023-02-19T12:28:07.441Z,4.00
2023-02-19T12:29:10.608Z,4.00
2023-02-19T12:30:10.631Z,4.00
2023-02-19T12:31:03.985Z,4.00
2023-02-19T12:32:10.617Z,4.00
2023-02-19T12:33:04.602Z,4.00
2023-02-19T12:34:01.720Z,4.00
2023-02-19T12:35:00.679Z,5.90
2023-02-19T12:36:01.703Z,5.90
2023-02-19T12:37:00.694Z,5.90
2023-02-19T12:38:10.620Z,5.90
2023-02-19T12:39:07.531Z,5.90
2023-02-19T12:40:00.687Z,5.90
2023-02-19T12:41:01.710Z,5.90
2023-02-19T12:42:10.605Z,5.90
2023-02-19T12:43:10.622Z,5.90
2023-02-19T12:44:04.536Z,5.90
2023-02-19T12:45:03.929Z,5.90
2023-02-19T12:46:03.787Z,5.90
2023-02-19T12:47:02.265Z,5.90
2023-02-19T12:48:05.166Z,5.90
2023-02-19T12:49:04.687Z,5.90
2023-02-19T12:50:10.608Z,5.90
2023-02-19T12:51:04.660Z,5.90
2023-02-19T12:52:08.653Z,5.90
2023-02-19T12:53:04.383Z,5.90
2023-02-19T12:54:04.747Z,5.90
2023-02-19T12:55:05.044Z,5.90
2023-02-19T12:56:03.453Z,5.90
2023-02-19T12:57:03.563Z,5.90
2023-02-19T12:58:04.231Z,5.90
2023-02-19T12:59:04.084Z,5.90
2023-02-19T13:00:10.618Z,5.90
2023-02-19T13:01:01.362Z,5.90
2023-02-19T13:02:00.747Z,5.90
2023-02-19T13:03:00.684Z,5.90
2023-02-19T13:04:01.712Z,5.90
2023-02-19T13:05:06.040Z,4.10
2023-02-19T13:06:12.001Z,4.10
2023-02-19T13:07:04.905Z,4.10
2023-02-19T13:08:01.709Z,4.10
2023-02-19T13:09:07.301Z,4.10
2023-02-19T13:10:10.654Z,4.10
2023-02-19T13:11:04.103Z,4.10
2023-02-19T13:12:07.408Z,4.10
2023-02-19T13:13:04.301Z,4.10
2023-02-19T13:14:05.296Z,4.10
2023-02-19T13:15:02.843Z,4.10
2023-02-19T13:16:05.576Z,4.10
2023-02-19T13:17:05.453Z,4.10